sensor_id;sensor_type;location;lat;lon;timestamp;temperature;humidity
9919;DHT22;4998;51.024;13.828;2023-04-06T00:00:48;6.60;50.10
9919;DHT22;4998;51.024;13.828;2023-04-06T00:03:15;6.60;50.30
9919;DHT22;4998;51.024;13.828;2023-04-06T00:05:42;6.60;50.20
9919;DHT22;4998;51.024;13.828;2023-04-06T00:08:10;6.60;50.20
9919;DHT22;4998;51.024;13.828;2023-04-06T00:10:37;6.50;50.20
9919;DHT22;4998;51.024;13.828;2023-04-06T00:13:06;6.40;50.10
9919;DHT22;4998;51.024;13.828;2023-04-06T00:15:33;6.40;50.10
9919;DHT22;4998;51.024;13.828;2023-04-06T00:18:02;6.30;50.00
9919;DHT22;4998;51.024;13.828;2023-04-06T00:20:29;6.30;50.20
9919;DHT22;4998;51.024;13.828;2023-04-06T00:22:56;6.20;50.10
9919;DHT22;4998;51.024;13.828;2023-04-06T00:25:23;6.10;50.20
9919;DHT22;4998;51.024;13.828;2023-04-06T00:27:51;6.10;50.40
9919;DHT22;4998;51.024;13.828;2023-04-06T00:30:18;6.00;50.50
9919;DHT22;4998;51.024;13.828;2023-04-06T00:32:45;6.00;50.70
9919;DHT22;4998;51.024;13.828;2023-04-06T00:35:14;6.00;50.90
9919;DHT22;4998;51.024;13.828;2023-04-06T00:37:41;5.90;51.00
9919;DHT22;4998;51.024;13.828;2023-04-06T00:40:09;5.90;51.10
9919;DHT22;4998;51.024;13.828;2023-04-06T00:42:37;5.90;51.10
9919;DHT22;4998;51.024;13.828;2023-04-06T00:45:04;5.90;51.10
9919;DHT22;4998;51.024;13.828;2023-04-06T00:47:32;5.90;51.10
9919;DHT22;4998;51.024;13.828;2023-04-06T00:50:00;5.90;51.30
9919;DHT22;4998;51.024;13.828;2023-04-06T00:52:28;5.90;51.20
9919;DHT22;4998;51.024;13.828;2023-04-06T00:54:55;5.90;51.30
9919;DHT22;4998;51.024;13.828;2023-04-06T00:57:23;5.90;51.30
9919;DHT22;4998;51.024;13.828;2023-04-06T00:59:50;5.90;51.80
9919;DHT22;4998;51.024;13.828;2023-04-06T01:02:18;5.90;51.40
9919;DHT22;4998;51.024;13.828;2023-04-06T01:04:46;5.90;51.50
9919;DHT22;4998;51.024;13.828;2023-04-06T01:07:13;5.90;51.50
9919;DHT22;4998;51.024;13.828;2023-04-06T01:09:41;5.90;51.50
9919;DHT22;4998;51.024;13.828;2023-04-06T01:12:09;5.90;51.60
9919;DHT22;4998;51.024;13.828;2023-04-06T01:14:36;5.90;51.50
9919;DHT22;4998;51.024;13.828;2023-04-06T01:17:03;5.80;51.60
9919;DHT22;4998;51.024;13.828;2023-04-06T01:19:30;5.80;51.60
9919;DHT22;4998;51.024;13.828;2023-04-06T01:21:57;5.80;51.60
9919;DHT22;4998;51.024;13.828;2023-04-06T01:24:26;5.80;51.70
9919;DHT22;4998;51.024;13.828;2023-04-06T01:26:53;5.80;51.70
9919;DHT22;4998;51.024;13.828;2023-04-06T01:29:22;5.80;51.70
9919;DHT22;4998;51.024;13.828;2023-04-06T01:31:49;5.80;51.70
9919;DHT22;4998;51.024;13.828;2023-04-06T01:34:16;5.80;51.70
9919;DHT22;4998;51.024;13.828;2023-04-06T01:36:43;5.80;51.80
9919;DHT22;4998;51.024;13.828;2023-04-06T01:39:10;5.80;51.80
9919;DHT22;4998;51.024;13.828;2023-04-06T01:41:39;5.80;51.80
9919;DHT22;4998;51.024;13.828;2023-04-06T01:44:06;5.70;51.90
9919;DHT22;4998;51.024;13.828;2023-04-06T01:46:33;5.70;51.90
9919;DHT22;4998;51.024;13.828;2023-04-06T01:49:01;5.70;51.90
9919;DHT22;4998;51.024;13.828;2023-04-06T01:51:28;5.70;51.90
9919;DHT22;4998;51.024;13.828;2023-04-06T01:53:55;5.70;51.90
9919;DHT22;4998;51.024;13.828;2023-04-06T01:56:23;5.70;51.90
9919;DHT22;4998;51.024;13.828;2023-04-06T01:58:51;5.60;51.90
9919;DHT22;4998;51.024;13.828;2023-04-06T02:01:18;5.60;52.00
9919;DHT22;4998;51.024;13.828;2023-04-06T02:03:45;5.60;52.10
9919;DHT22;4998;51.024;13.828;2023-04-06T02:06:12;5.50;52.10
9919;DHT22;4998;51.024;13.828;2023-04-06T02:08:40;5.50;52.20
9919;DHT22;4998;51.024;13.828;2023-04-06T02:11:07;5.50;52.20
9919;DHT22;4998;51.024;13.828;2023-04-06T02:13:34;5.50;52.40
9919;DHT22;4998;51.024;13.828;2023-04-06T02:16:03;5.50;52.40
9919;DHT22;4998;51.024;13.828;2023-04-06T02:18:31;5.40;52.50
9919;DHT22;4998;51.024;13.828;2023-04-06T02:20:58;5.40;52.50
9919;DHT22;4998;51.024;13.828;2023-04-06T02:23:26;5.40;52.50
9919;DHT22;4998;51.024;13.828;2023-04-06T02:25:53;5.40;52.50
9919;DHT22;4998;51.024;13.828;2023-04-06T02:28:20;5.40;52.60
9919;DHT22;4998;51.024;13.828;2023-04-06T02:30:47;5.40;52.60
9919;DHT22;4998;51.024;13.828;2023-04-06T02:33:16;5.40;52.70
9919;DHT22;4998;51.024;13.828;2023-04-06T02:35:44;5.30;52.70
9919;DHT22;4998;51.024;13.828;2023-04-06T02:38:12;5.30;52.70
9919;DHT22;4998;51.024;13.828;2023-04-06T02:40:39;5.30;52.70
9919;DHT22;4998;51.024;13.828;2023-04-06T02:43:06;5.30;52.80
9919;DHT22;4998;51.024;13.828;2023-04-06T02:45:33;5.30;52.80
9919;DHT22;4998;51.024;13.828;2023-04-06T02:48:01;5.30;52.90
9919;DHT22;4998;51.024;13.828;2023-04-06T02:50:30;5.30;53.00
9919;DHT22;4998;51.024;13.828;2023-04-06T02:52:57;5.20;53.00
9919;DHT22;4998;51.024;13.828;2023-04-06T02:55:24;5.20;52.90
9919;DHT22;4998;51.024;13.828;2023-04-06T02:57:51;5.20;53.00
9919;DHT22;4998;51.024;13.828;2023-04-06T03:00:19;5.20;53.10
9919;DHT22;4998;51.024;13.828;2023-04-06T03:02:46;5.20;53.20
9919;DHT22;4998;51.024;13.828;2023-04-06T03:05:13;5.10;53.10
9919;DHT22;4998;51.024;13.828;2023-04-06T03:07:42;5.10;53.20
9919;DHT22;4998;51.024;13.828;2023-04-06T03:10:09;5.10;53.30
9919;DHT22;4998;51.024;13.828;2023-04-06T03:12:36;5.10;53.30
9919;DHT22;4998;51.024;13.828;2023-04-06T03:15:04;5.10;53.30
9919;DHT22;4998;51.024;13.828;2023-04-06T03:17:32;5.00;53.40
9919;DHT22;4998;51.024;13.828;2023-04-06T03:19:59;5.00;53.40
9919;DHT22;4998;51.024;13.828;2023-04-06T03:22:26;5.00;53.40
9919;DHT22;4998;51.024;13.828;2023-04-06T03:24:54;4.90;53.30
9919;DHT22;4998;51.024;13.828;2023-04-06T03:27:21;4.90;53.50
9919;DHT22;4998;51.024;13.828;2023-04-06T03:29:49;4.90;53.50
9919;DHT22;4998;51.024;13.828;2023-04-06T03:32:16;4.90;53.50
9919;DHT22;4998;51.024;13.828;2023-04-06T03:34:43;4.90;53.60
9919;DHT22;4998;51.024;13.828;2023-04-06T03:37:10;4.80;53.60
9919;DHT22;4998;51.024;13.828;2023-04-06T03:39:37;4.80;53.60
9919;DHT22;4998;51.024;13.828;2023-04-06T03:42:06;4.80;53.70
9919;DHT22;4998;51.024;13.828;2023-04-06T03:44:33;4.70;53.70
9919;DHT22;4998;51.024;13.828;2023-04-06T03:47:00;4.70;53.70
9919;DHT22;4998;51.024;13.828;2023-04-06T03:49:27;4.70;53.70
9919;DHT22;4998;51.024;13.828;2023-04-06T03:51:56;4.70;53.70
9919;DHT22;4998;51.024;13.828;2023-04-06T03:54:23;4.60;53.80
9919;DHT22;4998;51.024;13.828;2023-04-06T03:56:50;4.60;53.80
9919;DHT22;4998;51.024;13.828;2023-04-06T03:59:19;4.60;53.90
9919;DHT22;4998;51.024;13.828;2023-04-06T04:01:46;4.60;54.00
9919;DHT22;4998;51.024;13.828;2023-04-06T04:04:13;4.60;54.00
9919;DHT22;4998;51.024;13.828;2023-04-06T04:06:40;4.60;54.00
9919;DHT22;4998;51.024;13.828;2023-04-06T04:09:07;4.50;54.00
9919;DHT22;4998;51.024;13.828;2023-04-06T04:11:34;4.50;54.10
9919;DHT22;4998;51.024;13.828;2023-04-06T04:14:01;4.50;54.10
9919;DHT22;4998;51.024;13.828;2023-04-06T04:16:30;4.50;54.20
9919;DHT22;4998;51.024;13.828;2023-04-06T04:18:57;4.50;54.30
9919;DHT22;4998;51.024;13.828;2023-04-06T04:21:25;4.40;54.20
9919;DHT22;4998;51.024;13.828;2023-04-06T04:23:52;4.40;54.30
9919;DHT22;4998;51.024;13.828;2023-04-06T04:26:19;4.40;54.50
9919;DHT22;4998;51.024;13.828;2023-04-06T04:28:46;4.40;54.50
9919;DHT22;4998;51.024;13.828;2023-04-06T04:31:13;4.40;54.50
9919;DHT22;4998;51.024;13.828;2023-04-06T04:33:42;4.40;54.60
9919;DHT22;4998;51.024;13.828;2023-04-06T04:36:09;4.40;54.80
9919;DHT22;4998;51.024;13.828;2023-04-06T04:38:36;4.30;54.70
9919;DHT22;4998;51.024;13.828;2023-04-06T04:41:03;4.40;54.70
9919;DHT22;4998;51.024;13.828;2023-04-06T04:43:31;4.30;54.90
9919;DHT22;4998;51.024;13.828;2023-04-06T04:45:58;4.30;54.90
9919;DHT22;4998;51.024;13.828;2023-04-06T04:48:26;4.30;55.00
9919;DHT22;4998;51.024;13.828;2023-04-06T04:50:54;4.30;55.00
9919;DHT22;4998;51.024;13.828;2023-04-06T04:53:22;4.30;55.20
9919;DHT22;4998;51.024;13.828;2023-04-06T04:55:49;4.30;55.10
9919;DHT22;4998;51.024;13.828;2023-04-06T04:58:16;4.20;55.00
9919;DHT22;4998;51.024;13.828;2023-04-06T05:00:45;4.30;55.30
9919;DHT22;4998;51.024;13.828;2023-04-06T05:03:17;4.30;55.30
9919;DHT22;4998;51.024;13.828;2023-04-06T05:05:45;4.30;55.50
9919;DHT22;4998;51.024;13.828;2023-04-06T05:08:14;4.30;55.40
9919;DHT22;4998;51.024;13.828;2023-04-06T05:10:41;4.30;55.40
9919;DHT22;4998;51.024;13.828;2023-04-06T05:13:08;4.30;55.40
9919;DHT22;4998;51.024;13.828;2023-04-06T05:15:35;4.30;55.40
9919;DHT22;4998;51.024;13.828;2023-04-06T05:18:03;4.30;55.50
9919;DHT22;4998;51.024;13.828;2023-04-06T05:20:31;4.40;55.60
9919;DHT22;4998;51.024;13.828;2023-04-06T05:22:58;4.40;55.50
9919;DHT22;4998;51.024;13.828;2023-04-06T05:25:27;4.40;55.60
9919;DHT22;4998;51.024;13.828;2023-04-06T05:27:55;4.50;55.80
9919;DHT22;4998;51.024;13.828;2023-04-06T05:30:22;4.50;55.90
9919;DHT22;4998;51.024;13.828;2023-04-06T05:32:49;4.50;56.00
9919;DHT22;4998;51.024;13.828;2023-04-06T05:35:16;4.60;56.10
9919;DHT22;4998;51.024;13.828;2023-04-06T05:37:45;4.60;56.10
9919;DHT22;4998;51.024;13.828;2023-04-06T05:40:12;4.70;56.20
9919;DHT22;4998;51.024;13.828;2023-04-06T05:42:41;4.80;56.20
9919;DHT22;4998;51.024;13.828;2023-04-06T05:45:10;4.90;56.50
9919;DHT22;4998;51.024;13.828;2023-04-06T05:47:42;5.10;56.60
9919;DHT22;4998;51.024;13.828;2023-04-06T05:50:09;5.20;56.60
9919;DHT22;4998;51.024;13.828;2023-04-06T05:52:37;5.40;56.70
9919;DHT22;4998;51.024;13.828;2023-04-06T05:55:04;5.50;56.70
9919;DHT22;4998;51.024;13.828;2023-04-06T05:57:32;5.70;56.80
9919;DHT22;4998;51.024;13.828;2023-04-06T06:00:00;5.80;56.70
9919;DHT22;4998;51.024;13.828;2023-04-06T06:02:30;6.00;56.60
9919;DHT22;4998;51.024;13.828;2023-04-06T06:04:58;6.20;56.60
9919;DHT22;4998;51.024;13.828;2023-04-06T06:07:25;6.30;56.40
9919;DHT22;4998;51.024;13.828;2023-04-06T06:09:52;6.50;56.40
9919;DHT22;4998;51.024;13.828;2023-04-06T06:12:19;6.60;56.20
9919;DHT22;4998;51.024;13.828;2023-04-06T06:14:46;6.80;56.30
9919;DHT22;4998;51.024;13.828;2023-04-06T06:17:15;6.90;56.00
9919;DHT22;4998;51.024;13.828;2023-04-06T06:19:42;7.00;55.90
9919;DHT22;4998;51.024;13.828;2023-04-06T06:22:09;7.10;55.80
9919;DHT22;4998;51.024;13.828;2023-04-06T06:24:36;7.20;55.70
9919;DHT22;4998;51.024;13.828;2023-04-06T06:27:03;7.30;56.20
9919;DHT22;4998;51.024;13.828;2023-04-06T06:29:31;7.40;55.50
9919;DHT22;4998;51.024;13.828;2023-04-06T06:31:58;7.50;55.30
9919;DHT22;4998;51.024;13.828;2023-04-06T06:34:26;7.60;55.40
9919;DHT22;4998;51.024;13.828;2023-04-06T06:36:54;7.70;55.40
9919;DHT22;4998;51.024;13.828;2023-04-06T06:39:21;7.80;55.40
9919;DHT22;4998;51.024;13.828;2023-04-06T06:41:48;7.80;55.30
9919;DHT22;4998;51.024;13.828;2023-04-06T06:44:15;7.90;55.30
9919;DHT22;4998;51.024;13.828;2023-04-06T06:46:43;8.00;55.30
9919;DHT22;4998;51.024;13.828;2023-04-06T06:49:10;8.10;55.20
9919;DHT22;4998;51.024;13.828;2023-04-06T06:51:39;8.10;55.20
9919;DHT22;4998;51.024;13.828;2023-04-06T06:54:06;8.30;55.10
9919;DHT22;4998;51.024;13.828;2023-04-06T06:56:33;8.40;55.10
9919;DHT22;4998;51.024;13.828;2023-04-06T06:59:03;8.50;55.00
9919;DHT22;4998;51.024;13.828;2023-04-06T07:01:32;8.50;54.80
9919;DHT22;4998;51.024;13.828;2023-04-06T07:04:00;8.60;54.80
9919;DHT22;4998;51.024;13.828;2023-04-06T07:06:27;8.80;54.70
9919;DHT22;4998;51.024;13.828;2023-04-06T07:08:55;8.80;54.50
9919;DHT22;4998;51.024;13.828;2023-04-06T07:11:23;8.90;54.40
9919;DHT22;4998;51.024;13.828;2023-04-06T07:13:50;9.00;54.50
9919;DHT22;4998;51.024;13.828;2023-04-06T07:16:17;9.00;54.30
9919;DHT22;4998;51.024;13.828;2023-04-06T07:18:44;9.20;54.50
9919;DHT22;4998;51.024;13.828;2023-04-06T07:21:11;9.20;54.40
9919;DHT22;4998;51.024;13.828;2023-04-06T07:23:39;9.40;54.30
9919;DHT22;4998;51.024;13.828;2023-04-06T07:26:07;9.40;54.30
9919;DHT22;4998;51.024;13.828;2023-04-06T07:28:34;9.50;54.90
9919;DHT22;4998;51.024;13.828;2023-04-06T07:31:01;9.60;54.10
9919;DHT22;4998;51.024;13.828;2023-04-06T07:33:28;9.70;54.10
9919;DHT22;4998;51.024;13.828;2023-04-06T07:35:56;9.80;53.90
9919;DHT22;4998;51.024;13.828;2023-04-06T07:38:24;9.80;53.90
9919;DHT22;4998;51.024;13.828;2023-04-06T07:40:51;9.90;53.80
9919;DHT22;4998;51.024;13.828;2023-04-06T07:43:20;10.00;52.80
9919;DHT22;4998;51.024;13.828;2023-04-06T07:45:47;10.10;52.80
9919;DHT22;4998;51.024;13.828;2023-04-06T07:48:14;10.20;52.70
9919;DHT22;4998;51.024;13.828;2023-04-06T07:50:41;10.20;52.60
9919;DHT22;4998;51.024;13.828;2023-04-06T07:53:09;10.30;52.70
9919;DHT22;4998;51.024;13.828;2023-04-06T07:55:36;10.40;52.70
9919;DHT22;4998;51.024;13.828;2023-04-06T07:58:03;10.50;52.60
9919;DHT22;4998;51.024;13.828;2023-04-06T08:00:32;10.60;52.50
9919;DHT22;4998;51.024;13.828;2023-04-06T08:02:59;10.70;52.20
9919;DHT22;4998;51.024;13.828;2023-04-06T08:05:26;10.70;52.00
9919;DHT22;4998;51.024;13.828;2023-04-06T08:07:53;10.80;52.00
9919;DHT22;4998;51.024;13.828;2023-04-06T08:10:21;10.90;52.00
9919;DHT22;4998;51.024;13.828;2023-04-06T08:12:48;10.90;51.80
9919;DHT22;4998;51.024;13.828;2023-04-06T08:15:15;10.90;51.60
9919;DHT22;4998;51.024;13.828;2023-04-06T08:17:45;11.00;51.50
9919;DHT22;4998;51.024;13.828;2023-04-06T08:20:12;11.00;51.20
9919;DHT22;4998;51.024;13.828;2023-04-06T08:22:39;11.10;51.20
9919;DHT22;4998;51.024;13.828;2023-04-06T08:25:07;11.10;50.90
9919;DHT22;4998;51.024;13.828;2023-04-06T08:27:34;11.10;50.60
9919;DHT22;4998;51.024;13.828;2023-04-06T08:30:01;11.20;50.50
9919;DHT22;4998;51.024;13.828;2023-04-06T08:32:29;11.20;50.40
9919;DHT22;4998;51.024;13.828;2023-04-06T08:34:57;11.20;50.30
9919;DHT22;4998;51.024;13.828;2023-04-06T08:37:25;11.30;50.10
9919;DHT22;4998;51.024;13.828;2023-04-06T08:39:52;11.40;49.80
9919;DHT22;4998;51.024;13.828;2023-04-06T08:42:21;11.40;49.60
9919;DHT22;4998;51.024;13.828;2023-04-06T08:44:49;11.40;49.40
9919;DHT22;4998;51.024;13.828;2023-04-06T08:47:18;11.40;49.20
9919;DHT22;4998;51.024;13.828;2023-04-06T08:49:45;11.50;49.20
9919;DHT22;4998;51.024;13.828;2023-04-06T08:52:15;11.50;49.10
9919;DHT22;4998;51.024;13.828;2023-04-06T08:54:44;11.50;48.80
9919;DHT22;4998;51.024;13.828;2023-04-06T08:57:11;11.60;48.70
9919;DHT22;4998;51.024;13.828;2023-04-06T08:59:39;11.60;48.30
9919;DHT22;4998;51.024;13.828;2023-04-06T09:02:12;11.60;48.20
9919;DHT22;4998;51.024;13.828;2023-04-06T09:04:43;11.60;47.70
9919;DHT22;4998;51.024;13.828;2023-04-06T09:07:13;11.60;47.70
9919;DHT22;4998;51.024;13.828;2023-04-06T09:09:40;11.50;47.40
9919;DHT22;4998;51.024;13.828;2023-04-06T09:12:22;11.60;47.40
9919;DHT22;4998;51.024;13.828;2023-04-06T09:14:49;11.60;47.00
9919;DHT22;4998;51.024;13.828;2023-04-06T09:17:20;11.60;47.10
9919;DHT22;4998;51.024;13.828;2023-04-06T09:19:48;11.60;46.60
9919;DHT22;4998;51.024;13.828;2023-04-06T09:22:17;11.60;46.70
9919;DHT22;4998;51.024;13.828;2023-04-06T09:24:46;11.60;46.40
9919;DHT22;4998;51.024;13.828;2023-04-06T09:27:13;11.70;46.40
9919;DHT22;4998;51.024;13.828;2023-04-06T09:29:41;11.70;46.20
9919;DHT22;4998;51.024;13.828;2023-04-06T09:32:09;11.80;46.20
9919;DHT22;4998;51.024;13.828;2023-04-06T09:34:37;11.80;46.00
9919;DHT22;4998;51.024;13.828;2023-04-06T09:37:14;11.90;45.80
9919;DHT22;4998;51.024;13.828;2023-04-06T09:39:43;11.90;45.20
9919;DHT22;4998;51.024;13.828;2023-04-06T09:42:12;11.90;45.30
9919;DHT22;4998;51.024;13.828;2023-04-06T09:44:51;12.00;45.20
9919;DHT22;4998;51.024;13.828;2023-04-06T09:47:18;12.10;45.40
9919;DHT22;4998;51.024;13.828;2023-04-06T09:49:46;12.10;45.00
9919;DHT22;4998;51.024;13.828;2023-04-06T09:52:16;12.20;44.90
9919;DHT22;4998;51.024;13.828;2023-04-06T09:54:45;12.20;44.90
9919;DHT22;4998;51.024;13.828;2023-04-06T09:57:24;12.20;44.50
9919;DHT22;4998;51.024;13.828;2023-04-06T10:00:00;12.20;44.10
9919;DHT22;4998;51.024;13.828;2023-04-06T10:02:34;12.20;43.50
9919;DHT22;4998;51.024;13.828;2023-04-06T10:05:15;12.30;43.80
9919;DHT22;4998;51.024;13.828;2023-04-06T10:07:44;12.30;43.70
9919;DHT22;4998;51.024;13.828;2023-04-06T10:10:14;12.30;43.70
9919;DHT22;4998;51.024;13.828;2023-04-06T10:12:41;12.30;43.60
9919;DHT22;4998;51.024;13.828;2023-04-06T10:15:10;12.40;43.50
9919;DHT22;4998;51.024;13.828;2023-04-06T10:17:38;12.40;43.30
9919;DHT22;4998;51.024;13.828;2023-04-06T10:20:10;12.50;43.50
9919;DHT22;4998;51.024;13.828;2023-04-06T10:22:44;12.50;43.20
9919;DHT22;4998;51.024;13.828;2023-04-06T10:25:25;12.60;43.40
9919;DHT22;4998;51.024;13.828;2023-04-06T10:27:59;12.70;43.30
9919;DHT22;4998;51.024;13.828;2023-04-06T10:30:26;12.90;43.00
9919;DHT22;4998;51.024;13.828;2023-04-06T10:32:54;13.00;43.10
9919;DHT22;4998;51.024;13.828;2023-04-06T10:35:22;13.10;42.70
9919;DHT22;4998;51.024;13.828;2023-04-06T10:37:54;13.20;42.30
9919;DHT22;4998;51.024;13.828;2023-04-06T10:40:28;13.30;42.30
9919;DHT22;4998;51.024;13.828;2023-04-06T10:43:07;13.40;42.50
9919;DHT22;4998;51.024;13.828;2023-04-06T10:45:35;13.50;41.90
9919;DHT22;4998;51.024;13.828;2023-04-06T10:48:13;13.60;42.10
9919;DHT22;4998;51.024;13.828;2023-04-06T10:50:41;13.60;42.00
9919;DHT22;4998;51.024;13.828;2023-04-06T10:53:08;13.70;41.90
9919;DHT22;4998;51.024;13.828;2023-04-06T10:55:39;13.80;42.10
9919;DHT22;4998;51.024;13.828;2023-04-06T10:58:07;13.90;42.00
9919;DHT22;4998;51.024;13.828;2023-04-06T11:00:35;14.00;42.00
9919;DHT22;4998;51.024;13.828;2023-04-06T11:03:03;14.10;42.00
9919;DHT22;4998;51.024;13.828;2023-04-06T11:05:30;14.30;40.70
9919;DHT22;4998;51.024;13.828;2023-04-06T11:07:57;14.30;40.40
9919;DHT22;4998;51.024;13.828;2023-04-06T11:10:24;14.20;39.90
9919;DHT22;4998;51.024;13.828;2023-04-06T11:12:56;14.20;39.50
9919;DHT22;4998;51.024;13.828;2023-04-06T11:15:23;14.20;38.80
9919;DHT22;4998;51.024;13.828;2023-04-06T11:17:50;14.10;39.30
9919;DHT22;4998;51.024;13.828;2023-04-06T11:20:18;14.00;39.30
9919;DHT22;4998;51.024;13.828;2023-04-06T11:22:49;13.90;39.10
9919;DHT22;4998;51.024;13.828;2023-04-06T11:25:17;13.80;38.90
9919;DHT22;4998;51.024;13.828;2023-04-06T11:27:45;13.80;39.20
9919;DHT22;4998;51.024;13.828;2023-04-06T11:30:15;13.70;39.20
9919;DHT22;4998;51.024;13.828;2023-04-06T11:32:43;13.70;39.20
9919;DHT22;4998;51.024;13.828;2023-04-06T11:35:20;13.60;39.30
9919;DHT22;4998;51.024;13.828;2023-04-06T11:37:49;13.60;39.40
9919;DHT22;4998;51.024;13.828;2023-04-06T11:40:21;13.50;39.30
9919;DHT22;4998;51.024;13.828;2023-04-06T11:42:52;13.50;39.00
9919;DHT22;4998;51.024;13.828;2023-04-06T11:45:22;13.50;39.10
9919;DHT22;4998;51.024;13.828;2023-04-06T11:47:56;13.50;39.10
9919;DHT22;4998;51.024;13.828;2023-04-06T11:50:25;13.40;38.90
9919;DHT22;4998;51.024;13.828;2023-04-06T11:52:58;13.40;39.30
9919;DHT22;4998;51.024;13.828;2023-04-06T11:55:26;13.50;39.30
9919;DHT22;4998;51.024;13.828;2023-04-06T11:57:54;13.50;39.50
9919;DHT22;4998;51.024;13.828;2023-04-06T12:00:23;13.60;39.60
9919;DHT22;4998;51.024;13.828;2023-04-06T12:02:50;13.60;39.40
9919;DHT22;4998;51.024;13.828;2023-04-06T12:05:17;13.70;39.50
9919;DHT22;4998;51.024;13.828;2023-04-06T12:07:45;13.70;39.30
9919;DHT22;4998;51.024;13.828;2023-04-06T12:10:12;13.80;39.40
9919;DHT22;4998;51.024;13.828;2023-04-06T12:12:39;13.90;39.40
9919;DHT22;4998;51.024;13.828;2023-04-06T12:15:07;14.00;39.60
9919;DHT22;4998;51.024;13.828;2023-04-06T12:17:36;14.10;39.30
9919;DHT22;4998;51.024;13.828;2023-04-06T12:20:04;14.30;39.40
9919;DHT22;4998;51.024;13.828;2023-04-06T12:22:31;14.40;39.50
9919;DHT22;4998;51.024;13.828;2023-04-06T12:24:58;14.50;39.40
9919;DHT22;4998;51.024;13.828;2023-04-06T12:27:26;14.70;39.50
9919;DHT22;4998;51.024;13.828;2023-04-06T12:29:53;14.80;39.30
9919;DHT22;4998;51.024;13.828;2023-04-06T12:32:21;14.90;39.20
9919;DHT22;4998;51.024;13.828;2023-04-06T12:34:51;15.00;39.20
9919;DHT22;4998;51.024;13.828;2023-04-06T12:37:19;15.20;38.90
9919;DHT22;4998;51.024;13.828;2023-04-06T12:39:47;15.30;39.00
9919;DHT22;4998;51.024;13.828;2023-04-06T12:42:14;15.40;38.80
9919;DHT22;4998;51.024;13.828;2023-04-06T12:44:41;15.50;38.70
9919;DHT22;4998;51.024;13.828;2023-04-06T12:47:09;15.50;38.30
9919;DHT22;4998;51.024;13.828;2023-04-06T12:49:36;15.50;38.20
9919;DHT22;4998;51.024;13.828;2023-04-06T12:52:05;15.50;37.80
9919;DHT22;4998;51.024;13.828;2023-04-06T12:54:32;15.50;37.30
9919;DHT22;4998;51.024;13.828;2023-04-06T12:56:59;15.40;37.40
9919;DHT22;4998;51.024;13.828;2023-04-06T12:59:26;15.30;37.20
9919;DHT22;4998;51.024;13.828;2023-04-06T13:01:56;15.20;37.00
9919;DHT22;4998;51.024;13.828;2023-04-06T13:04:23;15.10;37.40
9919;DHT22;4998;51.024;13.828;2023-04-06T13:06:52;15.00;36.80
9919;DHT22;4998;51.024;13.828;2023-04-06T13:09:20;15.00;37.00
9919;DHT22;4998;51.024;13.828;2023-04-06T13:11:47;14.90;36.60
9919;DHT22;4998;51.024;13.828;2023-04-06T13:14:15;14.90;36.70
9919;DHT22;4998;51.024;13.828;2023-04-06T13:16:42;14.80;36.60
9919;DHT22;4998;51.024;13.828;2023-04-06T13:19:09;14.70;36.80
9919;DHT22;4998;51.024;13.828;2023-04-06T13:21:37;14.70;36.60
9919;DHT22;4998;51.024;13.828;2023-04-06T13:24:04;14.60;36.20
9919;DHT22;4998;51.024;13.828;2023-04-06T13:26:33;14.60;36.50
9919;DHT22;4998;51.024;13.828;2023-04-06T13:29:01;14.60;36.40
9919;DHT22;4998;51.024;13.828;2023-04-06T13:31:28;14.50;36.50
9919;DHT22;4998;51.024;13.828;2023-04-06T13:33:56;14.60;36.60
9919;DHT22;4998;51.024;13.828;2023-04-06T13:36:23;14.50;36.20
9919;DHT22;4998;51.024;13.828;2023-04-06T13:38:50;14.50;36.10
9919;DHT22;4998;51.024;13.828;2023-04-06T13:41:19;14.40;36.30
9919;DHT22;4998;51.024;13.828;2023-04-06T13:43:48;14.50;36.60
9919;DHT22;4998;51.024;13.828;2023-04-06T13:46:15;14.50;36.50
9919;DHT22;4998;51.024;13.828;2023-04-06T13:48:43;14.40;36.50
9919;DHT22;4998;51.024;13.828;2023-04-06T13:51:11;14.40;36.60
9919;DHT22;4998;51.024;13.828;2023-04-06T13:53:39;14.50;36.60
9919;DHT22;4998;51.024;13.828;2023-04-06T13:56:07;14.50;36.60
9919;DHT22;4998;51.024;13.828;2023-04-06T13:58:34;14.50;36.40
9919;DHT22;4998;51.024;13.828;2023-04-06T14:01:04;14.50;36.40
9919;DHT22;4998;51.024;13.828;2023-04-06T14:03:31;14.50;36.20
9919;DHT22;4998;51.024;13.828;2023-04-06T14:05:58;14.50;36.20
9919;DHT22;4998;51.024;13.828;2023-04-06T14:08:26;14.50;36.00
9919;DHT22;4998;51.024;13.828;2023-04-06T14:10:53;14.40;35.50
9919;DHT22;4998;51.024;13.828;2023-04-06T14:13:21;14.40;35.70
9919;DHT22;4998;51.024;13.828;2023-04-06T14:15:53;14.30;35.70
9919;DHT22;4998;51.024;13.828;2023-04-06T14:18:22;14.30;35.60
9919;DHT22;4998;51.024;13.828;2023-04-06T14:20:54;14.20;35.70
9919;DHT22;4998;51.024;13.828;2023-04-06T14:23:22;14.20;35.40
9919;DHT22;4998;51.024;13.828;2023-04-06T14:25:49;14.20;35.80
9919;DHT22;4998;51.024;13.828;2023-04-06T14:28:16;14.10;35.80
9919;DHT22;4998;51.024;13.828;2023-04-06T14:30:43;14.20;36.60
9919;DHT22;4998;51.024;13.828;2023-04-06T14:33:10;14.10;35.90
9919;DHT22;4998;51.024;13.828;2023-04-06T14:35:39;14.10;36.00
9919;DHT22;4998;51.024;13.828;2023-04-06T14:38:06;14.20;35.90
9919;DHT22;4998;51.024;13.828;2023-04-06T14:40:35;14.20;36.00
9919;DHT22;4998;51.024;13.828;2023-04-06T14:43:03;14.20;35.90
9919;DHT22;4998;51.024;13.828;2023-04-06T14:45:33;14.20;35.90
9919;DHT22;4998;51.024;13.828;2023-04-06T14:48:00;14.20;35.80
9919;DHT22;4998;51.024;13.828;2023-04-06T14:50:27;14.30;36.20
9919;DHT22;4998;51.024;13.828;2023-04-06T14:52:55;14.30;36.20
9919;DHT22;4998;51.024;13.828;2023-04-06T14:55:23;14.40;36.10
9919;DHT22;4998;51.024;13.828;2023-04-06T14:57:50;14.40;36.20
9919;DHT22;4998;51.024;13.828;2023-04-06T15:00:17;14.50;36.20
9919;DHT22;4998;51.024;13.828;2023-04-06T15:02:44;14.50;36.20
9919;DHT22;4998;51.024;13.828;2023-04-06T15:05:11;14.50;36.10
9919;DHT22;4998;51.024;13.828;2023-04-06T15:07:38;14.60;36.10
9919;DHT22;4998;51.024;13.828;2023-04-06T15:10:08;14.60;36.00
9919;DHT22;4998;51.024;13.828;2023-04-06T15:12:35;14.70;36.10
9919;DHT22;4998;51.024;13.828;2023-04-06T15:15:03;14.70;36.10
9919;DHT22;4998;51.024;13.828;2023-04-06T15:17:30;14.80;36.20
9919;DHT22;4998;51.024;13.828;2023-04-06T15:19:57;14.90;36.20
9919;DHT22;4998;51.024;13.828;2023-04-06T15:22:24;15.00;36.30
9919;DHT22;4998;51.024;13.828;2023-04-06T15:24:51;15.10;35.90
9919;DHT22;4998;51.024;13.828;2023-04-06T15:27:20;15.10;35.70
9919;DHT22;4998;51.024;13.828;2023-04-06T15:29:47;15.20;35.60
9919;DHT22;4998;51.024;13.828;2023-04-06T15:32:14;15.20;35.60
9919;DHT22;4998;51.024;13.828;2023-04-06T15:34:41;15.20;35.40
9919;DHT22;4998;51.024;13.828;2023-04-06T15:37:08;15.20;35.40
9919;DHT22;4998;51.024;13.828;2023-04-06T15:39:35;15.20;35.40
9919;DHT22;4998;51.024;13.828;2023-04-06T15:42:03;15.20;35.40
9919;DHT22;4998;51.024;13.828;2023-04-06T15:44:31;15.20;35.30
9919;DHT22;4998;51.024;13.828;2023-04-06T15:46:58;15.20;35.30
9919;DHT22;4998;51.024;13.828;2023-04-06T15:49:25;15.20;35.40
9919;DHT22;4998;51.024;13.828;2023-04-06T15:51:53;15.20;35.40
9919;DHT22;4998;51.024;13.828;2023-04-06T15:54:20;15.20;35.40
9919;DHT22;4998;51.024;13.828;2023-04-06T15:56:47;15.30;35.50
9919;DHT22;4998;51.024;13.828;2023-04-06T15:59:15;15.40;35.40